EGAC - Belfast / Belfast-Harbour
Distance from station: E 5mi, 14km
Updated: 10/18/2017 3:50am
Nearby fog, Few clouds
Nearby fog, Few clouds
 Wind from N
Wind: N 2 mph , 4 km/h
Temperature: 50°F , 10°C
Dew Point: 50°F , 10°C
Humidity: 100%
Barometer: 29.85 inHg , 1011 hPa
Summary: Nearby Fog
Clouds: Few Clouds
Visibility: 6 miles , 10 km
Cloud details: Few Clouds 800 ft
2017/10/18 10:50 EGAC 181050Z 36002KT 9999 VCFG FEW008 10/10 Q1011